Time;durP1;ratioP1;P1;durP2;ratioP2;P2;SDS_P1;SDS_P2;PMS_P1;PMS_P2;Temp;Humidity;BMP_temperature;BMP_pressure;BME280_temperature;BME280_humidity;BME280_pressure;Samples;Min_cycle;Max_cycle;Signal;HPM_P1;HPM_P2
2023/08/21 07:09:25;;;;;;;3.38;1.25;;;;;;;;;;12808783;22;1253706;-78
2023/08/21 07:14:26;;;;;;;2.88;1.45;;;;;;;;;;12809554;23;20001;-79
2023/08/21 07:19:27;;;;;;;5.32;2.10;;;;;;;;;;12781983;23;20334;-79
2023/08/21 07:24:28;;;;;;;5.50;2.42;;;;;;;;;;12783471;23;20084;-79
2023/08/21 07:29:30;;;;;;;3.95;2.20;;;;;;;;;;12787258;23;20113;-81
2023/08/21 07:34:31;;;;;;;5.47;2.03;;;;;;;;;;12787494;23;20005;-81
2023/08/21 07:39:32;;;;;;;3.63;1.98;;;;;;;;;;12843565;23;19993;-81
2023/08/21 07:44:33;;;;;;;3.97;1.75;;;;;;;;;;12827700;23;20111;-81
2023/08/21 07:49:34;;;;;;;3.08;1.88;;;;;;;;;;12817266;23;20036;-81
2023/08/21 07:54:35;;;;;;;4.07;1.60;;;;;;;;;;12815166;23;20338;-81
2023/08/21 07:59:36;;;;;;;2.90;1.50;;;;;;;;;;12815463;23;20037;-82
2023/08/21 08:04:37;;;;;;;3.40;1.90;;;;;;;;;;12786573;23;20103;-81
2023/08/21 08:09:39;;;;;;;5.18;1.80;;;;;;;;;;12782348;23;20349;-82
2023/08/21 08:14:40;;;;;;;5.25;1.50;;;;;;;;;;12783001;23;20032;-78
2023/08/21 08:19:41;;;;;;;6.03;1.35;;;;;;;;;;12808663;23;20001;-81
2023/08/21 08:24:42;;;;;;;3.25;1.42;;;;;;;;;;12803176;23;20005;-78
2023/08/21 08:29:43;;;;;;;4.53;1.88;;;;;;;;;;12777621;23;20032;-80
2023/08/21 08:34:46;;;;;;;5.00;1.48;;;;;;;;;;12777795;23;20059;-78
2023/08/21 08:39:48;;;;;;;2.72;1.50;;;;;;;;;;12802721;23;20055;-79
2023/08/21 08:44:49;;;;;;;5.53;1.63;;;;;;;;;;12776245;23;20500;-79
2023/08/21 08:49:51;;;;;;;4.80;1.42;;;;;;;;;;12812542;23;20012;-80
2023/08/21 08:54:53;;;;;;;3.08;1.60;;;;;;;;;;12802684;23;20083;-80
2023/08/21 08:59:54;;;;;;;4.70;1.20;;;;;;;;;;12780777;23;19997;-80
2023/08/21 09:05:08;;;;;;;5.75;1.80;;;;;;;;;;12784548;23;20005;-85
2023/08/21 09:10:15;;;;;;;5.03;1.50;;;;;;;;;;12797729;23;20041;-84
2023/08/21 09:15:17;;;;;;;12.57;6.93;;;;;;;;;;12784356;23;20005;-84
2023/08/21 09:20:18;;;;;;;6.28;2.13;;;;;;;;;;12782532;23;20004;-81
2023/08/21 09:25:19;;;;;;;7.20;2.83;;;;;;;;;;12805794;23;20447;-79
2023/08/21 09:30:20;;;;;;;3.38;1.88;;;;;;;;;;12779316;23;20005;-80
2023/08/21 09:35:24;;;;;;;4.80;2.90;;;;;;;;;;12813376;23;20017;-80
2023/08/21 09:40:25;;;;;;;4.00;1.73;;;;;;;;;;12781454;23;20005;-81
2023/08/21 09:45:29;;;;;;;5.47;2.30;;;;;;;;;;12804160;23;20008;-80
2023/08/21 09:50:32;;;;;;;3.88;1.63;;;;;;;;;;12796496;23;20009;-80
2023/08/21 09:55:33;;;;;;;5.43;1.50;;;;;;;;;;12776016;23;20319;-80
2023/08/21 10:00:35;;;;;;;4.20;1.55;;;;;;;;;;12806435;23;20003;-78
2023/08/21 10:05:37;;;;;;;5.55;1.75;;;;;;;;;;12812887;23;20005;-82
2023/08/21 10:10:39;;;;;;;6.50;1.60;;;;;;;;;;12825417;23;20009;-83
2023/08/21 10:15:40;;;;;;;3.38;1.75;;;;;;;;;;12827930;23;20016;-83
2023/08/21 10:20:41;;;;;;;4.65;2.65;;;;;;;;;;12783766;23;20429;-83
2023/08/21 10:25:42;;;;;;;5.22;1.67;;;;;;;;;;12790472;23;20013;-83
2023/08/21 10:30:43;;;;;;;3.42;1.50;;;;;;;;;;12783562;23;20341;-83
2023/08/21 10:35:44;;;;;;;3.38;1.75;;;;;;;;;;12815235;23;20067;-83
2023/08/21 10:41:04;;;;;;;2.15;1.33;;;;;;;;;;12788587;23;20024;-83
2023/08/21 10:46:06;;;;;;;5.80;1.73;;;;;;;;;;12788784;23;20005;-84
2023/08/21 10:51:08;;;;;;;4.75;1.40;;;;;;;;;;12820877;23;20278;-83
2023/08/21 10:56:09;;;;;;;3.13;1.80;;;;;;;;;;12789483;23;20004;-83
2023/08/21 11:01:13;;;;;;;3.90;1.50;;;;;;;;;;12790311;23;20009;-84
2023/08/21 11:06:14;;;;;;;8.93;3.10;;;;;;;;;;12793549;23;20009;-83
2023/08/21 11:11:17;;;;;;;4.03;1.52;;;;;;;;;;12819954;23;20011;-82
2023/08/21 11:16:18;;;;;;;4.10;1.65;;;;;;;;;;12813533;23;20048;-84
2023/08/21 11:21:19;;;;;;;2.90;1.50;;;;;;;;;;12792314;23;20425;-84
2023/08/21 11:26:21;;;;;;;3.83;1.40;;;;;;;;;;12791638;23;20009;-84
2023/08/21 11:31:22;;;;;;;5.70;1.77;;;;;;;;;;12795970;23;20005;-80
2023/08/21 11:36:23;;;;;;;4.30;1.65;;;;;;;;;;12794896;23;20100;-83
2023/08/21 11:41:24;;;;;;;3.38;1.70;;;;;;;;;;12812731;23;20001;-83
2023/08/21 11:46:26;;;;;;;4.50;1.83;;;;;;;;;;12784343;23;20005;-83
2023/08/21 11:51:27;;;;;;;4.40;1.58;;;;;;;;;;12787451;23;20080;-83
2023/08/21 11:56:29;;;;;;;5.00;1.58;;;;;;;;;;12784499;23;20067;-83
2023/08/21 12:01:33;;;;;;;3.20;1.50;;;;;;;;;;12785408;23;19997;-82
2023/08/21 12:06:35;;;;;;;5.13;1.88;;;;;;;;;;12787779;23;20012;-83
2023/08/21 12:11:38;;;;;;;4.18;1.88;;;;;;;;;;12758623;23;20025;-80
2023/08/21 12:16:39;;;;;;;3.13;1.42;;;;;;;;;;12760968;23;20072;-80
2023/08/21 12:21:40;;;;;;;4.00;1.60;;;;;;;;;;12761927;23;20001;-81
2023/08/21 12:26:41;;;;;;;3.30;1.60;;;;;;;;;;12766608;23;20013;-83
2023/08/21 12:31:42;;;;;;;2.72;1.40;;;;;;;;;;12763710;23;20028;-82
2023/08/21 12:36:43;;;;;;;5.95;1.65;;;;;;;;;;12766746;23;20015;-81
2023/08/21 12:41:44;;;;;;;5.00;1.80;;;;;;;;;;12769783;23;20047;-82
2023/08/21 12:46:45;;;;;;;3.33;1.80;;;;;;;;;;12773062;23;20009;-82
2023/08/21 12:51:46;;;;;;;3.65;1.35;;;;;;;;;;12773339;23;20069;-81
2023/08/21 12:56:47;;;;;;;4.47;1.80;;;;;;;;;;12767108;23;20009;-81
2023/08/21 13:01:48;;;;;;;4.78;2.05;;;;;;;;;;12771822;23;20104;-82
2023/08/21 13:06:49;;;;;;;6.65;1.60;;;;;;;;;;12773430;23;19997;-81
2023/08/21 13:11:50;;;;;;;6.47;2.13;;;;;;;;;;12767742;23;20014;-82
2023/08/21 13:16:51;;;;;;;3.72;1.65;;;;;;;;;;12772206;23;20049;-83
2023/08/21 13:21:54;;;;;;;4.45;1.98;;;;;;;;;;12769141;23;20028;-81
2023/08/21 13:26:55;;;;;;;6.30;2.00;;;;;;;;;;12775563;23;20092;-82
2023/08/21 13:31:56;;;;;;;4.00;2.00;;;;;;;;;;12780552;23;20013;-82
2023/08/21 13:36:57;;;;;;;3.42;1.73;;;;;;;;;;12779928;23;20021;-81
2023/08/21 13:41:58;;;;;;;3.95;1.67;;;;;;;;;;12787276;23;20013;-80
2023/08/21 13:46:59;;;;;;;5.53;2.35;;;;;;;;;;12766353;23;20021;-82
2023/08/21 13:52:00;;;;;;;3.55;1.65;;;;;;;;;;12776363;23;20030;-83
2023/08/21 13:57:01;;;;;;;4.10;1.88;;;;;;;;;;12780151;23;20057;-84
2023/08/21 14:02:02;;;;;;;4.22;1.77;;;;;;;;;;12767971;23;20037;-83
2023/08/21 14:07:03;;;;;;;4.00;1.80;;;;;;;;;;12779328;23;20020;-83
2023/08/21 14:12:06;;;;;;;3.33;1.50;;;;;;;;;;12767922;23;20009;-82
2023/08/21 14:17:07;;;;;;;3.78;2.10;;;;;;;;;;12765026;23;20037;-85
2023/08/21 14:22:08;;;;;;;6.40;2.53;;;;;;;;;;12767218;23;20006;-83
2023/08/21 14:27:09;;;;;;;4.28;1.85;;;;;;;;;;12766670;23;20008;-82
2023/08/21 14:32:11;;;;;;;3.45;1.70;;;;;;;;;;12764114;23;20002;-81
2023/08/21 14:37:15;;;;;;;3.63;1.70;;;;;;;;;;12764972;23;20025;-81
2023/08/21 14:42:16;;;;;;;6.65;2.00;;;;;;;;;;12763801;23;20050;-82
2023/08/21 14:47:17;;;;;;;3.50;1.88;;;;;;;;;;12766471;23;20049;-83
2023/08/21 14:52:18;;;;;;;4.38;1.75;;;;;;;;;;12772124;23;20057;-83
2023/08/21 14:57:19;;;;;;;4.07;2.03;;;;;;;;;;12761987;23;20006;-83
2023/08/21 15:02:20;;;;;;;4.97;2.28;;;;;;;;;;12762011;23;20011;-82
2023/08/21 15:07:21;;;;;;;5.50;1.70;;;;;;;;;;12763212;23;20009;-82
2023/08/21 15:12:22;;;;;;;5.75;2.03;;;;;;;;;;12763627;23;20045;-83
2023/08/21 15:17:23;;;;;;;5.05;2.08;;;;;;;;;;12762136;23;20005;-84
2023/08/21 15:22:24;;;;;;;7.28;2.20;;;;;;;;;;12767371;23;20006;-83
2023/08/21 15:27:26;;;;;;;7.13;2.13;;;;;;;;;;12771406;23;20005;-82
2023/08/21 15:32:27;;;;;;;3.55;1.70;;;;;;;;;;12785097;23;20006;-82
2023/08/21 15:37:28;;;;;;;5.78;2.30;;;;;;;;;;12780208;23;20093;-81
2023/08/21 15:42:29;;;;;;;6.88;2.70;;;;;;;;;;12767108;23;20012;-81
2023/08/21 15:47:30;;;;;;;4.68;2.05;;;;;;;;;;12764607;23;20420;-82
2023/08/21 15:52:31;;;;;;;5.07;2.05;;;;;;;;;;12765196;23;20008;-85
2023/08/21 15:57:32;;;;;;;3.95;2.00;;;;;;;;;;12762138;23;20043;-81
2023/08/21 16:02:33;;;;;;;4.45;2.20;;;;;;;;;;12758100;23;20346;-82
2023/08/21 16:07:35;;;;;;;4.72;3.60;;;;;;;;;;12743215;23;20033;-83
2023/08/21 16:12:36;;;;;;;4.20;3.65;;;;;;;;;;12744499;23;20087;-80
2023/08/21 16:17:37;;;;;;;3.60;2.13;;;;;;;;;;12745420;23;20061;-87
2023/08/21 16:22:38;;;;;;;4.30;2.40;;;;;;;;;;12745056;23;20021;-84
2023/08/21 16:27:40;;;;;;;3.63;2.40;;;;;;;;;;12746279;23;20033;-84
2023/08/21 16:32:42;;;;;;;5.45;2.35;;;;;;;;;;12752301;23;20089;-85
2023/08/21 16:37:43;;;;;;;4.43;2.60;;;;;;;;;;12791803;23;20038;-84
2023/08/21 16:42:57;;;;;;;3.17;2.10;;;;;;;;;;12762748;23;20013;-85
2023/08/21 16:48:00;;;;;;;2.92;2.10;;;;;;;;;;12750649;23;20013;-85
2023/08/21 16:53:03;;;;;;;3.25;1.95;;;;;;;;;;12753688;23;20005;-85
2023/08/21 16:58:04;;;;;;;3.35;1.70;;;;;;;;;;12750896;23;20005;-83
2023/08/21 17:03:08;;;;;;;4.32;1.80;;;;;;;;;;12750440;23;20005;-85
2023/08/21 17:08:11;;;;;;;3.83;2.10;;;;;;;;;;12751064;23;20016;-84
2023/08/21 17:13:12;;;;;;;3.28;1.83;;;;;;;;;;12756309;23;20010;-83
2023/08/21 17:18:28;;;;;;;3.15;1.92;;;;;;;;;;12755800;23;20016;-85
2023/08/21 17:23:30;;;;;;;3.35;1.92;;;;;;;;;;12744688;23;20016;-84
2023/08/21 17:28:31;;;;;;;5.32;2.47;;;;;;;;;;12737238;23;20472;-85
2023/08/21 17:33:39;;;;;;;5.38;2.00;;;;;;;;;;12754752;23;20012;-86
2023/08/21 17:38:41;;;;;;;2.90;2.10;;;;;;;;;;12750265;23;20005;-85
2023/08/21 17:43:43;;;;;;;5.20;2.30;;;;;;;;;;12724712;23;20013;-86
2023/08/21 18:00:09;;;;;;;3.70;1.98;;;;;;;;;;12565274;23;20376;-84
2023/08/21 18:05:10;;;;;;;3.47;2.35;;;;;;;;;;12680759;23;20010;-85
